createdAt,value
2022-11-19T00:01:35.621Z,-22.81
2022-11-19T00:04:07.697Z,-22.43
2022-11-19T00:06:35.761Z,-22.50
2022-11-19T00:09:06.055Z,-22.52
2022-11-19T00:11:53.278Z,-22.60
2022-11-19T00:14:21.353Z,-22.51
2022-11-19T00:16:48.929Z,-22.45
2022-11-19T00:19:17.279Z,-22.82
2022-11-19T00:21:46.214Z,-22.51
2022-11-19T00:24:14.450Z,-22.50
2022-11-19T00:26:43.753Z,-22.32
2022-11-19T00:29:16.831Z,-22.25
2022-11-19T00:31:48.570Z,-22.21
2022-11-19T00:34:16.624Z,-22.20
2022-11-19T00:36:44.269Z,-22.16
2022-11-19T00:39:12.551Z,-22.11
2022-11-19T00:41:40.581Z,-22.08
2022-11-19T00:44:08.296Z,-22.02
2022-11-19T00:46:36.466Z,-21.97
2022-11-19T00:49:04.847Z,-21.91
2022-11-19T00:51:32.841Z,-21.86
2022-11-19T00:54:01.103Z,-21.82
2022-11-19T00:56:29.320Z,-21.77
2022-11-19T00:58:57.136Z,-21.74
2022-11-19T01:01:32.049Z,-21.71
2022-11-19T01:04:00.084Z,-21.79
2022-11-19T01:06:29.008Z,-21.73
2022-11-19T01:08:57.164Z,-21.57
2022-11-19T01:11:29.803Z,-21.50
2022-11-19T01:13:59.553Z,-21.44
2022-11-19T01:16:29.540Z,-21.41
2022-11-19T01:18:59.091Z,-21.38
2022-11-19T01:21:30.126Z,-21.34
2022-11-19T01:23:59.250Z,-21.27
2022-11-19T01:26:28.370Z,-21.22
2022-11-19T01:28:57.071Z,-21.17
2022-11-19T01:31:32.982Z,-21.36
2022-11-19T01:34:01.175Z,-21.04
2022-11-19T01:36:30.315Z,-20.97
2022-11-19T01:38:58.890Z,-20.90
2022-11-19T01:41:32.319Z,-20.88
2022-11-19T01:44:02.786Z,-20.77
2022-11-19T01:46:39.564Z,-20.73
2022-11-19T01:49:17.547Z,-20.62
2022-11-19T01:51:50.928Z,-20.55
2022-11-19T01:54:21.887Z,-20.50
2022-11-19T01:56:50.066Z,-20.46
2022-11-19T01:59:21.069Z,-20.46
2022-11-19T02:01:49.409Z,-20.37
2022-11-19T02:04:21.604Z,-20.32
2022-11-19T02:06:50.008Z,-20.28
2022-11-19T02:09:18.401Z,-20.21
2022-11-19T02:12:10.513Z,-20.21
2022-11-19T02:14:56.978Z,-20.09
2022-11-19T02:17:31.449Z,-20.04
2022-11-19T02:20:25.092Z,-19.99
2022-11-19T02:23:26.469Z,-19.93
2022-11-19T02:26:12.932Z,-19.89
2022-11-19T02:29:06.453Z,-19.84
2022-11-19T02:32:03.354Z,-19.77
2022-11-19T02:34:59.650Z,-19.70
2022-11-19T02:37:56.532Z,-19.63
2022-11-19T02:40:42.791Z,-19.57
2022-11-19T02:43:22.738Z,-19.50
2022-11-19T02:46:15.447Z,-19.48
2022-11-19T02:48:50.720Z,-19.46
2022-11-19T02:51:20.464Z,-19.42
2022-11-19T02:53:49.110Z,-19.38
2022-11-19T02:56:53.325Z,-19.29
2022-11-19T03:00:06.122Z,-19.18
2022-11-19T03:03:00.056Z,-19.08
2022-11-19T03:05:34.546Z,-19.03
2022-11-19T03:08:02.846Z,-18.92
2022-11-19T03:10:40.334Z,-18.83
2022-11-19T03:14:03.145Z,-18.76
2022-11-19T03:16:43.471Z,-18.63
2022-11-19T03:19:26.545Z,-18.52
2022-11-19T03:22:13.931Z,-18.42
2022-11-19T03:24:59.700Z,-18.32
2022-11-19T03:27:42.465Z,-18.22
2022-11-19T03:30:11.944Z,-18.13
2022-11-19T03:32:46.499Z,-18.03
2022-11-19T03:35:23.416Z,-17.95
2022-11-19T03:37:57.148Z,-17.86
2022-11-19T03:40:28.775Z,-17.79
2022-11-19T03:42:59.763Z,-17.72
2022-11-19T03:45:34.544Z,-17.63
2022-11-19T03:48:04.955Z,-17.55
2022-11-19T03:50:58.658Z,-17.48
2022-11-19T03:53:28.806Z,-17.41
2022-11-19T03:56:04.760Z,-17.32
2022-11-19T03:58:42.090Z,-17.13
2022-11-19T04:01:11.493Z,-16.91
2022-11-19T04:03:39.580Z,-16.71
2022-11-19T04:06:10.126Z,-16.51
2022-11-19T04:08:38.117Z,-16.33
2022-11-19T04:13:32.703Z,-16.03
2022-11-19T04:16:00.672Z,-15.92
2022-11-19T04:18:28.710Z,-15.79
2022-11-19T04:20:58.061Z,-15.73
2022-11-19T04:23:26.136Z,-15.52
2022-11-19T04:25:54.115Z,-15.41
2022-11-19T04:28:23.919Z,-15.27
2022-11-19T04:30:51.888Z,-15.20
2022-11-19T04:33:19.852Z,-15.16
2022-11-19T04:35:48.047Z,-15.02
2022-11-19T04:38:16.052Z,-14.94
2022-11-19T04:40:44.026Z,-14.89
2022-11-19T04:43:12.207Z,-14.75
2022-11-19T04:45:40.204Z,-14.67
2022-11-19T04:48:08.305Z,-14.61
2022-11-19T04:50:36.512Z,-14.58
2022-11-19T04:53:04.577Z,-14.59
2022-11-19T04:55:32.526Z,-14.57
2022-11-19T04:58:00.747Z,-14.62
2022-11-19T05:00:30.566Z,-14.53
2022-11-19T05:02:58.652Z,-14.54
2022-11-19T05:05:26.829Z,-14.54
2022-11-19T05:07:54.854Z,-14.52
2022-11-19T05:10:22.842Z,-14.50
2022-11-19T05:12:51.124Z,-14.50
2022-11-19T05:15:19.211Z,-14.49
2022-11-19T05:17:47.215Z,-14.52
2022-11-19T05:20:15.627Z,-14.47
2022-11-19T05:22:44.497Z,-14.42
2022-11-19T05:25:12.519Z,-14.47
2022-11-19T05:27:40.862Z,-14.38
2022-11-19T05:30:09.832Z,-14.37
2022-11-19T05:32:37.928Z,-14.32
2022-11-19T05:35:07.197Z,-14.28
2022-11-19T05:37:35.188Z,-14.33
2022-11-19T05:40:03.770Z,-14.24
2022-11-19T05:42:32.601Z,-14.26
2022-11-19T05:45:00.581Z,-14.23
2022-11-19T05:47:28.628Z,-14.21
2022-11-19T05:49:57.478Z,-14.17
2022-11-19T05:52:25.591Z,-14.18
2022-11-19T05:54:53.587Z,-14.18
2022-11-19T05:57:23.144Z,-14.16
2022-11-19T05:59:51.156Z,-14.11
2022-11-19T06:02:19.145Z,-14.18
2022-11-19T06:04:47.323Z,-14.07
2022-11-19T06:07:15.234Z,-14.01
2022-11-19T06:09:43.212Z,-13.98
2022-11-19T06:12:11.384Z,-14.00
2022-11-19T06:14:39.447Z,-13.99
2022-11-19T06:17:07.548Z,-13.97
2022-11-19T06:19:35.871Z,-13.95
2022-11-19T06:22:03.962Z,-13.94
2022-11-19T06:24:33.265Z,-13.93
2022-11-19T06:27:01.365Z,-13.91
2022-11-19T06:29:29.327Z,-13.97
2022-11-19T06:31:57.259Z,-13.94
2022-11-19T06:34:25.355Z,-13.96
2022-11-19T06:36:53.732Z,-13.91
2022-11-19T06:39:21.925Z,-13.91
2022-11-19T06:41:51.182Z,-13.93
2022-11-19T06:44:19.243Z,-13.94
2022-11-19T06:46:47.200Z,-13.95
2022-11-19T06:49:20.090Z,-13.92
2022-11-19T06:51:48.879Z,-13.87
2022-11-19T06:54:16.788Z,-13.87
2022-11-19T06:56:44.916Z,-13.80
2022-11-19T06:59:12.979Z,-13.78
2022-11-19T07:01:40.913Z,-13.76
2022-11-19T07:04:10.841Z,-13.70
2022-11-19T07:06:38.757Z,-13.77
2022-11-19T07:09:06.708Z,-13.70
2022-11-19T07:11:37.492Z,-13.73
2022-11-19T07:14:05.436Z,-13.73
2022-11-19T07:16:37.532Z,-13.68
2022-11-19T07:19:08.166Z,-13.63
2022-11-19T07:21:37.191Z,-13.60
2022-11-19T07:24:09.492Z,-13.62
2022-11-19T07:26:42.089Z,-13.72
2022-11-19T07:29:14.801Z,-13.62
2022-11-19T07:31:43.029Z,-13.63
2022-11-19T07:34:14.255Z,-13.69
2022-11-19T07:36:42.216Z,-13.57
2022-11-19T07:39:10.211Z,-13.60
2022-11-19T07:41:56.615Z,-13.54
2022-11-19T07:44:24.626Z,-13.57
2022-11-19T07:46:52.727Z,-13.56
2022-11-19T07:49:23.335Z,-13.59
2022-11-19T07:51:51.552Z,-13.49
2022-11-19T07:54:19.584Z,-13.48
2022-11-19T07:56:47.768Z,-13.51
2022-11-19T07:59:15.899Z,-13.54
2022-11-19T08:01:44.072Z,-13.59
2022-11-19T08:04:12.365Z,-13.60
2022-11-19T08:06:40.421Z,-13.64
2022-11-19T08:09:08.556Z,-13.65
2022-11-19T08:11:36.773Z,-13.65
2022-11-19T08:14:05.106Z,-13.59
2022-11-19T08:16:54.276Z,-13.57
2022-11-19T08:20:22.661Z,-13.59
2022-11-19T08:22:50.401Z,-13.59
2022-11-19T08:25:18.424Z,-13.67
2022-11-19T08:27:48.364Z,-13.65
2022-11-19T08:30:19.709Z,-13.66
2022-11-19T08:32:47.663Z,-13.65
2022-11-19T08:35:15.523Z,-13.68
2022-11-19T08:37:43.645Z,-13.60
2022-11-19T08:40:11.834Z,-13.55
2022-11-19T08:42:58.908Z,-13.50
2022-11-19T08:45:35.891Z,-13.47
2022-11-19T08:48:12.069Z,-13.42
2022-11-19T08:50:42.677Z,-13.40
2022-11-19T08:53:10.665Z,-13.38
2022-11-19T08:55:40.247Z,-13.36
2022-11-19T08:58:08.802Z,-13.34
2022-11-19T09:00:38.167Z,-13.34
2022-11-19T09:03:12.538Z,-13.35
2022-11-19T09:05:40.565Z,-13.38
2022-11-19T09:08:08.947Z,-13.38
2022-11-19T09:10:39.064Z,-13.43
2022-11-19T09:13:07.173Z,-13.40
2022-11-19T09:15:36.512Z,-13.43
2022-11-19T09:18:04.694Z,-13.44
2022-11-19T09:20:32.709Z,-13.44
2022-11-19T09:23:00.668Z,-13.44
2022-11-19T09:25:31.102Z,-13.46
2022-11-19T09:27:59.194Z,-13.44
2022-11-19T09:30:27.490Z,-13.45
2022-11-19T09:32:56.524Z,-13.45
2022-11-19T09:35:24.518Z,-13.43
2022-11-19T09:37:52.463Z,-13.45
2022-11-19T09:40:24.695Z,-13.51
2022-11-19T09:43:28.547Z,-13.48
2022-11-19T09:46:05.322Z,-13.51
2022-11-19T09:48:41.825Z,-13.53
2022-11-19T09:51:18.462Z,-13.50
2022-11-19T09:54:00.437Z,-13.51
2022-11-19T09:56:39.344Z,-13.49
2022-11-19T09:59:29.867Z,-13.52
2022-11-19T10:01:59.220Z,-13.54
2022-11-19T10:04:31.638Z,-13.58
2022-11-19T10:07:12.885Z,-13.58
2022-11-19T10:10:13.043Z,-13.64
2022-11-19T10:13:15.627Z,-13.71
2022-11-19T10:16:07.741Z,-13.76
2022-11-19T10:19:09.210Z,-13.77
2022-11-19T10:21:52.350Z,-13.78
2022-11-19T10:24:49.933Z,-13.79
2022-11-19T10:27:33.296Z,-13.85
2022-11-19T10:30:09.452Z,-13.87
2022-11-19T10:32:42.078Z,-13.85
2022-11-19T10:35:19.712Z,-13.86
2022-11-19T10:37:59.257Z,-13.88
2022-11-19T10:40:39.686Z,-13.91
2022-11-19T10:43:29.453Z,-13.94
2022-11-19T10:46:02.111Z,-14.00
2022-11-19T10:48:50.131Z,-13.99
2022-11-19T10:51:38.238Z,-13.99
2022-11-19T10:54:21.924Z,-14.01
2022-11-19T10:56:51.713Z,-14.10
2022-11-19T10:59:28.529Z,-14.11
2022-11-19T11:02:28.218Z,-14.16
2022-11-19T11:05:18.557Z,-14.18
2022-11-19T11:07:56.690Z,-14.19
2022-11-19T11:10:45.249Z,-14.18
2022-11-19T11:13:51.873Z,-14.20
2022-11-19T11:16:23.951Z,-14.21
2022-11-19T11:18:55.325Z,-14.21
2022-11-19T11:21:37.683Z,-14.21
2022-11-19T11:24:06.617Z,-14.23
2022-11-19T11:26:34.999Z,-14.22
2022-11-19T11:29:15.233Z,-14.22
2022-11-19T11:31:46.714Z,-14.23
2022-11-19T11:34:26.653Z,-14.25
2022-11-19T11:36:55.680Z,-14.26
2022-11-19T11:39:30.043Z,-14.28
2022-11-19T11:42:07.646Z,-14.27
2022-11-19T11:44:39.438Z,-14.35
2022-11-19T11:47:26.020Z,-14.27
2022-11-19T11:50:18.416Z,-14.31
2022-11-19T11:52:55.643Z,-14.28
2022-11-19T11:55:26.351Z,-14.27
2022-11-19T11:58:00.011Z,-14.27
2022-11-19T12:00:37.189Z,-14.23
2022-11-19T12:03:15.459Z,-14.24
2022-11-19T12:06:13.956Z,-14.18
2022-11-19T12:09:14.367Z,-14.16
2022-11-19T12:11:59.713Z,-14.21
2022-11-19T12:15:25.193Z,-14.10
2022-11-19T12:18:09.756Z,-14.05
2022-11-19T12:20:57.685Z,-14.01
2022-11-19T12:23:44.201Z,-13.97
2022-11-19T12:26:28.599Z,-13.94
2022-11-19T12:29:14.644Z,-13.92
2022-11-19T12:32:04.152Z,-13.87
2022-11-19T12:34:44.074Z,-13.83
2022-11-19T12:37:38.579Z,-13.80
2022-11-19T12:40:26.414Z,-13.76
2022-11-19T12:43:39.340Z,-13.72
2022-11-19T12:46:25.485Z,-13.71
2022-11-19T12:49:18.519Z,-13.68
2022-11-19T12:51:53.112Z,-13.67
2022-11-19T12:54:35.673Z,-13.63
2022-11-19T12:57:15.730Z,-13.59
2022-11-19T13:00:04.076Z,-13.54
2022-11-19T13:03:12.987Z,-13.46
2022-11-19T13:05:55.952Z,-13.42
2022-11-19T13:08:56.629Z,-13.38
2022-11-19T13:11:49.253Z,-13.35
2022-11-19T13:14:53.508Z,-13.30
2022-11-19T13:17:36.132Z,-13.25
2022-11-19T13:20:08.758Z,-13.18
2022-11-19T13:22:42.151Z,-13.13
2022-11-19T13:25:31.044Z,-13.08
2022-11-19T13:28:02.903Z,-13.04
2022-11-19T13:30:34.067Z,-13.04
2022-11-19T13:33:15.174Z,-12.96
2022-11-19T13:36:20.384Z,-12.92
2022-11-19T13:39:00.230Z,-12.89
2022-11-19T13:41:34.352Z,-12.85
2022-11-19T13:44:21.625Z,-12.82
2022-11-19T13:47:01.456Z,-12.79
2022-11-19T13:49:39.864Z,-12.75
2022-11-19T13:52:10.446Z,-12.73
2022-11-19T13:54:42.135Z,-12.69
2022-11-19T13:57:38.642Z,-12.65
2022-11-19T14:00:21.910Z,-12.63
2022-11-19T14:03:27.272Z,-12.61
2022-11-19T14:06:30.416Z,-12.58
2022-11-19T14:09:24.236Z,-12.57
2022-11-19T14:12:10.628Z,-12.53
2022-11-19T14:15:18.909Z,-12.50
2022-11-19T14:18:14.111Z,-12.48
2022-11-19T14:21:04.770Z,-12.46
2022-11-19T14:24:06.125Z,-12.40
2022-11-19T14:26:43.158Z,-12.38
2022-11-19T14:29:17.884Z,-12.35
2022-11-19T14:32:03.162Z,-12.32
2022-11-19T14:34:37.643Z,-12.28
2022-11-19T14:37:20.325Z,-12.27
2022-11-19T14:40:00.888Z,-12.25
2022-11-19T14:42:29.064Z,-12.22
2022-11-19T14:45:06.599Z,-12.23
2022-11-19T14:47:45.169Z,-12.18
2022-11-19T14:50:25.132Z,-12.16
2022-11-19T14:52:56.984Z,-12.13
2022-11-19T14:55:29.476Z,-12.11
2022-11-19T14:58:08.702Z,-12.06
2022-11-19T15:00:41.303Z,-12.02
2022-11-19T15:03:19.312Z,-12.00
2022-11-19T15:05:48.330Z,-11.96
2022-11-19T15:08:18.836Z,-11.94
2022-11-19T15:11:03.861Z,-11.94
2022-11-19T15:13:37.032Z,-11.92
2022-11-19T15:16:30.139Z,-11.90
2022-11-19T15:19:35.101Z,-11.90
2022-11-19T15:22:18.211Z,-11.87
2022-11-19T15:25:19.786Z,-11.89
2022-11-19T15:28:40.166Z,-11.90
2022-11-19T15:31:28.257Z,-11.90
2022-11-19T15:34:25.652Z,-11.91
2022-11-19T15:37:01.615Z,-11.89
2022-11-19T15:39:38.759Z,-11.89
2022-11-19T15:42:13.290Z,-11.86
2022-11-19T15:44:50.938Z,-11.86
2022-11-19T15:47:26.325Z,-11.85
2022-11-19T15:49:58.097Z,-11.84
2022-11-19T15:52:32.775Z,-11.81
2022-11-19T15:55:19.868Z,-11.82
2022-11-19T15:57:52.410Z,-11.81
2022-11-19T16:00:24.713Z,-11.81
2022-11-19T16:02:54.453Z,-11.75
2022-11-19T16:05:26.879Z,-11.75
2022-11-19T16:07:57.134Z,-11.75
2022-11-19T16:10:39.159Z,-11.73
2022-11-19T16:13:44.371Z,-11.71
2022-11-19T16:16:50.305Z,-11.70
2022-11-19T16:19:19.134Z,-11.69
2022-11-19T16:22:04.318Z,-11.68
2022-11-19T16:24:51.764Z,-11.66
2022-11-19T16:27:24.516Z,-11.66
2022-11-19T16:29:52.852Z,-11.65
2022-11-19T16:32:24.806Z,-11.63
2022-11-19T16:34:53.386Z,-11.63
2022-11-19T16:37:22.994Z,-11.62
2022-11-19T16:39:53.897Z,-11.61
2022-11-19T16:42:29.276Z,-11.60
2022-11-19T16:45:18.062Z,-11.60
2022-11-19T16:47:58.207Z,-11.59
2022-11-19T16:50:27.997Z,-11.57
2022-11-19T16:52:56.585Z,-11.56
2022-11-19T16:55:26.343Z,-11.55
2022-11-19T16:57:59.514Z,-11.53
2022-11-19T17:00:35.283Z,-11.52
2022-11-19T17:03:41.362Z,-11.52
2022-11-19T17:06:19.594Z,-11.49
2022-11-19T17:08:57.699Z,-11.47
2022-11-19T17:11:59.543Z,-11.46
2022-11-19T17:14:36.410Z,-11.41
2022-11-19T17:17:04.822Z,-11.42
2022-11-19T17:19:37.233Z,-11.41
2022-11-19T17:22:14.948Z,-11.49
2022-11-19T17:24:46.752Z,-11.41
2022-11-19T17:27:28.827Z,-11.38
2022-11-19T17:30:04.492Z,-11.37
2022-11-19T17:32:46.540Z,-11.34
2022-11-19T17:35:35.527Z,-11.33
2022-11-19T17:38:30.624Z,-11.30
2022-11-19T17:41:06.734Z,-11.28
2022-11-19T17:43:58.613Z,-11.27
2022-11-19T17:46:29.231Z,-11.31
2022-11-19T17:48:57.720Z,-11.29
2022-11-19T17:51:27.543Z,-11.26
2022-11-19T17:53:57.482Z,-11.23
2022-11-19T17:56:29.947Z,-11.23
2022-11-19T17:59:00.469Z,-11.21
2022-11-19T18:01:28.677Z,-11.20
2022-11-19T18:03:56.771Z,-11.18
2022-11-19T18:06:25.002Z,-11.16
2022-11-19T18:08:53.005Z,-11.15
2022-11-19T18:11:26.223Z,-11.15
2022-11-19T18:13:58.429Z,-11.13
2022-11-19T18:16:28.654Z,-11.10
2022-11-19T18:18:58.483Z,-11.09
2022-11-19T18:21:29.125Z,-11.07
2022-11-19T18:23:57.145Z,-11.04
2022-11-19T18:26:25.197Z,-11.02
2022-11-19T18:28:54.197Z,-11.08
2022-11-19T18:31:26.902Z,-10.99
2022-11-19T18:33:56.963Z,-10.98
2022-11-19T18:36:27.846Z,-10.97
2022-11-19T18:38:56.239Z,-10.98
2022-11-19T18:41:24.465Z,-10.93
2022-11-19T18:44:10.739Z,-10.93
2022-11-19T18:46:38.790Z,-10.90
2022-11-19T18:49:06.865Z,-10.96
2022-11-19T18:51:35.101Z,-10.89
2022-11-19T18:54:03.015Z,-10.86
2022-11-19T18:56:31.141Z,-10.93
2022-11-19T18:59:04.339Z,-10.86
2022-11-19T19:01:33.107Z,-10.86
2022-11-19T19:04:01.235Z,-10.85
2022-11-19T19:06:31.158Z,-10.86
2022-11-19T19:08:59.462Z,-10.87
2022-11-19T19:11:47.239Z,-10.84
2022-11-19T19:14:15.645Z,-10.83
2022-11-19T19:16:43.916Z,-10.82
2022-11-19T19:19:14.931Z,-10.82
2022-11-19T19:21:44.137Z,-10.90
2022-11-19T19:24:12.260Z,-10.91
2022-11-19T19:26:40.606Z,-10.82
2022-11-19T19:29:09.344Z,-10.80
2022-11-19T19:31:37.844Z,-10.78
2022-11-19T19:34:07.178Z,-10.79
2022-11-19T19:36:35.225Z,-10.85
2022-11-19T19:39:03.203Z,-10.77
2022-11-19T19:41:33.918Z,-10.77
2022-11-19T19:44:03.966Z,-10.77
2022-11-19T19:46:33.515Z,-10.77
2022-11-19T19:49:01.597Z,-10.80
2022-11-19T19:51:32.044Z,-10.81
2022-11-19T19:54:00.952Z,-10.85
2022-11-19T19:56:33.071Z,-10.96
2022-11-19T19:59:02.185Z,-10.87
2022-11-19T20:01:31.579Z,-10.88
2022-11-19T20:04:08.081Z,-10.90
2022-11-19T20:06:38.665Z,-10.93
2022-11-19T20:09:08.947Z,-10.95
2022-11-19T20:11:38.962Z,-10.96
2022-11-19T20:14:07.267Z,-10.93
2022-11-19T20:16:35.919Z,-10.94
2022-11-19T20:19:07.096Z,-10.92
2022-11-19T20:21:36.818Z,-10.97
2022-11-19T20:24:12.184Z,-10.96
2022-11-19T20:26:42.380Z,-10.96
2022-11-19T20:29:15.036Z,-11.07
2022-11-19T20:31:48.191Z,-10.95
2022-11-19T20:34:17.900Z,-10.93
2022-11-19T20:36:46.089Z,-10.92
2022-11-19T20:39:14.376Z,-10.90
2022-11-19T20:42:00.840Z,-10.90
2022-11-19T20:44:30.174Z,-10.90
2022-11-19T20:47:03.753Z,-10.88
2022-11-19T20:49:35.219Z,-11.07
2022-11-19T20:52:06.038Z,-10.85
2022-11-19T20:54:34.882Z,-10.85
2022-11-19T20:57:03.180Z,-10.85
2022-11-19T20:59:31.396Z,-10.86
2022-11-19T21:01:59.725Z,-10.90
2022-11-19T21:04:29.436Z,-10.85
2022-11-19T21:06:59.042Z,-10.78
2022-11-19T21:09:27.056Z,-10.74
2022-11-19T21:11:54.967Z,-10.76
2022-11-19T21:14:25.175Z,-10.72
2022-11-19T21:16:53.238Z,-10.72
2022-11-19T21:19:21.436Z,-10.72
2022-11-19T21:21:49.978Z,-10.79
2022-11-19T21:24:18.901Z,-10.72
2022-11-19T21:26:47.070Z,-10.76
2022-11-19T21:29:15.200Z,-10.77
2022-11-19T21:31:47.040Z,-10.79
2022-11-19T21:34:24.002Z,-10.78
2022-11-19T21:36:52.363Z,-10.79
2022-11-19T21:39:20.952Z,-10.81
2022-11-19T21:41:51.088Z,-10.81
2022-11-19T21:44:21.847Z,-10.82
2022-11-19T21:46:50.425Z,-10.82
2022-11-19T21:49:19.166Z,-10.81
2022-11-19T21:51:47.422Z,-10.88
2022-11-19T21:54:15.377Z,-10.82
2022-11-19T21:56:44.288Z,-10.81
2022-11-19T21:59:12.436Z,-10.80
2022-11-19T22:01:40.422Z,-10.80
2022-11-19T22:04:10.136Z,-10.78
2022-11-19T22:06:38.110Z,-10.79
2022-11-19T22:09:06.309Z,-10.77
2022-11-19T22:11:36.245Z,-10.76
2022-11-19T22:14:09.147Z,-10.75
2022-11-19T22:16:40.390Z,-10.74
2022-11-19T22:19:09.340Z,-10.81
2022-11-19T22:21:37.500Z,-10.73
2022-11-19T22:24:06.651Z,-10.74
2022-11-19T22:26:34.841Z,-10.77
2022-11-19T22:29:02.820Z,-10.80
2022-11-19T22:31:30.929Z,-10.82
2022-11-19T22:33:58.878Z,-10.85
2022-11-19T22:36:26.863Z,-10.89
2022-11-19T22:38:55.163Z,-10.94
2022-11-19T22:41:23.506Z,-11.06
2022-11-19T22:43:51.509Z,-11.04
2022-11-19T22:46:22.304Z,-11.05
2022-11-19T22:48:52.328Z,-11.08
2022-11-19T22:51:25.688Z,-11.12
2022-11-19T22:53:55.170Z,-11.17
2022-11-19T22:56:26.448Z,-11.22
2022-11-19T22:58:55.169Z,-11.24
2022-11-19T23:01:32.431Z,-11.30
2022-11-19T23:04:03.336Z,-11.33
2022-11-19T23:06:31.416Z,-11.39
2022-11-19T23:09:00.266Z,-11.45
2022-11-19T23:11:46.510Z,-11.51
2022-11-19T23:14:17.174Z,-11.65
2022-11-19T23:16:46.202Z,-11.72
2022-11-19T23:19:15.205Z,-11.83
2022-11-19T23:21:43.058Z,-11.99
2022-11-19T23:24:11.769Z,-12.13
2022-11-19T23:26:40.580Z,-12.32
2022-11-19T23:29:10.521Z,-12.35
2022-11-19T23:31:40.439Z,-12.49
2022-11-19T23:34:09.116Z,-12.62
2022-11-19T23:36:40.569Z,-12.75
2022-11-19T23:39:14.418Z,-12.82
2022-11-19T23:41:42.669Z,-12.88
2022-11-19T23:44:13.107Z,-12.93
2022-11-19T23:46:41.545Z,-13.25
2022-11-19T23:49:11.904Z,-13.10
2022-11-19T23:51:41.055Z,-13.24
2022-11-19T23:54:09.044Z,-13.27
2022-11-19T23:56:37.185Z,-13.40
2022-11-19T23:59:07.270Z,-13.43
